createdAt,value
2019-02-20T00:02:08.619Z,73.01
2019-02-20T00:04:36.075Z,72.42
2019-02-20T00:07:03.587Z,72.13
2019-02-20T00:09:31.027Z,72.75
2019-02-20T00:11:59.469Z,71.77
2019-02-20T00:14:26.993Z,71.99
2019-02-20T00:16:54.461Z,71.98
2019-02-20T00:19:21.887Z,72.53
2019-02-20T00:21:49.364Z,72.47
2019-02-20T00:24:16.834Z,72.37
2019-02-20T00:26:44.306Z,71.83
2019-02-20T00:29:11.770Z,72.61
2019-02-20T00:31:39.233Z,72.31
2019-02-20T00:34:08.203Z,72.58
2019-02-20T00:36:34.184Z,73.35
2019-02-20T00:39:01.633Z,73.39
2019-02-20T00:41:29.069Z,73.72
2019-02-20T00:43:56.507Z,73.04
2019-02-20T00:46:34.739Z,72.70
2019-02-20T00:49:02.644Z,72.11
2019-02-20T00:51:31.609Z,72.37
2019-02-20T00:53:59.068Z,72.72
2019-02-20T00:56:26.507Z,73.38
2019-02-20T00:58:54.837Z,72.42
2019-02-20T01:01:22.394Z,72.38
2019-02-20T01:03:49.839Z,72.63
2019-02-20T01:06:17.548Z,72.61
2019-02-20T01:08:44.999Z,73.30
2019-02-20T01:11:12.472Z,72.63
2019-02-20T01:13:39.914Z,72.72
2019-02-20T01:16:07.406Z,73.39
2019-02-20T01:18:34.833Z,73.03
2019-02-20T01:21:02.290Z,72.95
2019-02-20T01:23:29.795Z,73.49
2019-02-20T01:25:57.227Z,73.38
2019-02-20T01:28:24.660Z,72.90
2019-02-20T01:30:52.130Z,72.93
2019-02-20T01:33:20.296Z,72.41
2019-02-20T01:35:48.253Z,72.84
2019-02-20T01:38:15.727Z,73.56
2019-02-20T01:40:43.203Z,73.36
2019-02-20T01:43:10.683Z,73.85
2019-02-20T01:45:38.158Z,73.45
2019-02-20T01:48:05.629Z,73.43
2019-02-20T01:50:33.106Z,73.42
2019-02-20T01:53:09.799Z,73.50
2019-02-20T01:55:28.099Z,72.90
2019-02-20T01:57:55.541Z,72.32
2019-02-20T02:00:23.019Z,73.10
2019-02-20T02:02:50.489Z,72.55
2019-02-20T02:05:17.951Z,72.79
2019-02-20T02:07:45.427Z,72.95
2019-02-20T02:10:12.884Z,72.62
2019-02-20T02:12:40.343Z,72.81
2019-02-20T02:15:07.793Z,72.40
2019-02-20T02:17:35.256Z,72.54
2019-02-20T02:20:02.722Z,72.92
2019-02-20T02:22:30.159Z,72.51
2019-02-20T02:24:57.633Z,73.95
2019-02-20T02:27:25.083Z,73.81
2019-02-20T02:29:52.583Z,74.43
2019-02-20T02:32:20.015Z,74.79
2019-02-20T02:34:47.478Z,74.65
2019-02-20T02:37:14.925Z,74.91
2019-02-20T02:39:42.375Z,74.93
2019-02-20T02:42:09.832Z,74.56
2019-02-20T02:44:37.271Z,73.75
2019-02-20T02:47:04.703Z,74.37
2019-02-20T02:49:32.210Z,74.49
2019-02-20T02:51:59.662Z,74.06
2019-02-20T02:54:27.135Z,74.09
2019-02-20T02:56:54.661Z,74.44
2019-02-20T02:59:22.148Z,74.15
2019-02-20T03:01:50.112Z,74.72
2019-02-20T03:04:17.536Z,74.23
2019-02-20T03:06:44.988Z,73.67
2019-02-20T03:09:12.462Z,74.54
2019-02-20T03:11:39.916Z,75.15
2019-02-20T03:14:08.247Z,74.16
2019-02-20T03:16:35.813Z,74.74
2019-02-20T03:19:03.264Z,74.56
2019-02-20T03:21:30.749Z,74.30
2019-02-20T03:23:58.232Z,74.67
2019-02-20T03:26:25.678Z,74.10
2019-02-20T03:28:53.153Z,73.66
2019-02-20T03:31:20.771Z,72.99
2019-02-20T03:33:48.222Z,72.23
2019-02-20T03:36:16.514Z,72.14
2019-02-20T03:38:44.114Z,72.63
2019-02-20T03:41:11.635Z,73.70
2019-02-20T03:43:39.103Z,73.50
2019-02-20T03:46:06.569Z,73.25
2019-02-20T03:48:34.039Z,72.53
2019-02-20T03:51:01.507Z,72.64
2019-02-20T03:53:28.973Z,72.80
2019-02-20T03:55:56.422Z,73.25
2019-02-20T03:58:24.798Z,73.43
2019-02-20T04:00:52.309Z,74.09
2019-02-20T04:03:19.748Z,73.50
2019-02-20T04:05:47.213Z,73.35
2019-02-20T04:08:14.681Z,74.02
2019-02-20T04:10:42.157Z,74.41
2019-02-20T04:13:09.660Z,72.81
2019-02-20T04:15:37.095Z,73.27
2019-02-20T04:18:04.527Z,73.19
2019-02-20T04:20:31.958Z,72.45
2019-02-20T04:22:59.433Z,72.02
2019-02-20T04:25:26.956Z,71.73
2019-02-20T04:27:54.430Z,71.28
2019-02-20T04:30:22.014Z,71.48
2019-02-20T04:32:49.445Z,72.05
2019-02-20T04:35:16.888Z,72.70
2019-02-20T04:37:44.327Z,72.96
2019-02-20T04:40:11.786Z,73.04
2019-02-20T04:42:39.250Z,73.24
2019-02-20T04:45:06.783Z,73.57
2019-02-20T04:47:34.237Z,73.22
2019-02-20T04:50:01.684Z,72.89
2019-02-20T04:52:29.127Z,73.73
2019-02-20T04:55:00.366Z,73.07
2019-02-20T04:57:27.785Z,72.50
2019-02-20T04:59:55.246Z,73.17
2019-02-20T05:02:22.708Z,73.17
2019-02-20T05:04:50.167Z,73.11
2019-02-20T05:07:17.724Z,73.04
2019-02-20T05:09:45.159Z,73.32
2019-02-20T05:12:12.584Z,72.81
2019-02-20T05:14:40.043Z,71.82
2019-02-20T05:17:07.519Z,72.62
2019-02-20T05:19:34.971Z,71.67
2019-02-20T05:22:02.448Z,72.00
2019-02-20T05:24:29.869Z,71.26
2019-02-20T05:26:57.336Z,70.78
2019-02-20T05:29:24.796Z,70.69
2019-02-20T05:31:53.167Z,70.60
2019-02-20T05:34:20.609Z,70.59
2019-02-20T05:36:48.067Z,70.39
2019-02-20T05:39:15.519Z,71.07
2019-02-20T05:41:43.282Z,71.33
2019-02-20T05:44:10.759Z,71.12
2019-02-20T05:46:38.238Z,70.91
2019-02-20T05:49:05.673Z,70.55
2019-02-20T05:51:34.210Z,70.97
2019-02-20T05:54:01.665Z,70.42
2019-02-20T05:56:29.129Z,71.36
2019-02-20T05:58:56.575Z,70.74
2019-02-20T06:01:23.993Z,71.07
2019-02-20T06:03:51.473Z,71.02
2019-02-20T06:06:19.733Z,70.50
2019-02-20T06:08:47.252Z,70.35
2019-02-20T06:11:15.640Z,71.07
2019-02-20T06:13:42.218Z,71.54
2019-02-20T06:16:09.655Z,70.96
2019-02-20T06:18:37.092Z,70.98
2019-02-20T06:21:04.619Z,71.48
2019-02-20T06:23:32.075Z,70.81
2019-02-20T06:25:59.520Z,71.91
2019-02-20T06:28:26.989Z,71.82
2019-02-20T06:30:54.467Z,71.44
2019-02-20T06:33:21.924Z,71.99
2019-02-20T06:35:49.396Z,72.32
2019-02-20T06:38:16.863Z,72.95
2019-02-20T06:40:44.281Z,73.01
2019-02-20T06:43:11.755Z,72.91
2019-02-20T06:45:39.207Z,73.77
2019-02-20T06:48:06.653Z,74.20
2019-02-20T06:50:34.127Z,73.71
2019-02-20T06:53:01.563Z,73.77
2019-02-20T06:55:29.050Z,73.27
2019-02-20T06:57:56.525Z,73.92
2019-02-20T07:00:23.980Z,73.19
2019-02-20T07:02:51.534Z,72.68
2019-02-20T07:05:24.588Z,73.11
2019-02-20T07:08:12.896Z,73.59
2019-02-20T07:10:46.989Z,74.01
2019-02-20T07:15:45.063Z,73.45
2019-02-20T07:18:20.239Z,73.25
2019-02-20T07:21:11.150Z,73.18
2019-02-20T07:23:56.005Z,72.73
2019-02-20T07:26:38.293Z,73.04
2019-02-20T07:29:12.004Z,72.75
2019-02-20T07:31:39.596Z,72.93
2019-02-20T07:34:07.038Z,71.94
2019-02-20T07:36:36.361Z,72.43
2019-02-20T07:39:03.841Z,72.95
2019-02-20T07:41:31.275Z,71.94
2019-02-20T07:43:58.723Z,71.69
2019-02-20T07:46:26.179Z,72.27
2019-02-20T07:48:53.633Z,71.83
2019-02-20T07:51:21.111Z,71.74
2019-02-20T07:53:48.616Z,71.98
2019-02-20T07:56:16.044Z,72.72
2019-02-20T07:58:43.514Z,72.04
2019-02-20T08:01:10.980Z,72.02
2019-02-20T08:03:38.486Z,73.15
2019-02-20T08:06:05.954Z,73.65
2019-02-20T08:08:33.508Z,73.87
2019-02-20T08:11:00.969Z,73.22
2019-02-20T08:13:28.526Z,72.79
2019-02-20T08:15:56.833Z,73.00
2019-02-20T08:18:24.310Z,72.44
2019-02-20T08:20:52.773Z,71.73
2019-02-20T08:23:20.205Z,71.89
2019-02-20T08:25:47.685Z,72.99
2019-02-20T08:28:15.161Z,73.21
2019-02-20T08:30:42.606Z,73.42
2019-02-20T08:33:10.054Z,73.34
2019-02-20T08:35:37.555Z,74.20
2019-02-20T08:38:05.064Z,73.57
2019-02-20T08:40:32.490Z,73.64
2019-02-20T08:42:59.961Z,74.24
2019-02-20T08:45:27.408Z,73.09
2019-02-20T08:47:54.871Z,73.25
2019-02-20T08:50:22.326Z,72.84
2019-02-20T08:52:49.822Z,72.75
2019-02-20T08:55:18.952Z,72.07
2019-02-20T08:57:44.751Z,72.24
2019-02-20T09:00:12.807Z,72.70
2019-02-20T09:02:40.263Z,72.48
2019-02-20T09:05:07.711Z,71.82
2019-02-20T09:07:35.175Z,71.49
2019-02-20T09:10:02.614Z,72.42
2019-02-20T09:12:30.050Z,72.36
2019-02-20T09:14:57.635Z,71.73
2019-02-20T09:17:25.136Z,72.06
2019-02-20T09:19:52.586Z,71.57
2019-02-20T09:22:20.073Z,71.73
2019-02-20T09:24:47.539Z,71.65
2019-02-20T09:27:14.973Z,71.91
2019-02-20T09:29:42.521Z,72.11
2019-02-20T09:32:09.993Z,71.53
2019-02-20T09:34:37.472Z,71.39
2019-02-20T09:37:04.938Z,71.67
2019-02-20T09:39:32.442Z,72.46
2019-02-20T09:41:59.894Z,71.63
2019-02-20T09:44:29.471Z,71.41
2019-02-20T09:46:57.132Z,71.73
2019-02-20T09:49:24.593Z,71.39
2019-02-20T09:51:52.068Z,71.02
2019-02-20T09:54:19.531Z,70.57
2019-02-20T09:56:46.969Z,70.26
2019-02-20T09:59:14.435Z,70.56
2019-02-20T10:01:41.903Z,70.42
2019-02-20T10:04:09.415Z,69.74
2019-02-20T10:06:36.871Z,69.25
2019-02-20T10:09:04.337Z,69.41
2019-02-20T10:11:31.834Z,69.81
2019-02-20T10:13:59.300Z,69.39
2019-02-20T10:16:26.743Z,68.84
2019-02-20T10:18:54.254Z,69.31
2019-02-20T10:21:21.734Z,68.97
2019-02-20T10:23:49.189Z,68.86
2019-02-20T10:26:16.710Z,69.22
2019-02-20T10:28:44.186Z,69.07
2019-02-20T10:31:11.647Z,68.32
2019-02-20T10:33:39.078Z,68.50
2019-02-20T10:36:06.600Z,68.76
2019-02-20T10:38:34.070Z,68.23
2019-02-20T10:41:01.529Z,68.07
2019-02-20T10:43:29.411Z,67.81
2019-02-20T10:45:56.898Z,67.67
2019-02-20T10:48:24.350Z,68.12
2019-02-20T10:50:51.833Z,67.54
2019-02-20T10:53:19.357Z,68.04
2019-02-20T10:55:46.855Z,67.81
2019-02-20T10:58:14.329Z,67.42
2019-02-20T11:00:41.790Z,67.64
2019-02-20T11:03:10.835Z,67.69
2019-02-20T11:05:38.381Z,67.41
2019-02-20T11:08:05.868Z,67.96
2019-02-20T11:10:33.335Z,67.12
2019-02-20T11:13:00.826Z,67.72
2019-02-20T11:15:28.294Z,68.32
2019-02-20T11:17:55.914Z,68.27
2019-02-20T11:20:23.410Z,68.14
2019-02-20T11:22:50.903Z,68.13
2019-02-20T11:25:18.388Z,68.14
2019-02-20T11:27:45.850Z,67.83
2019-02-20T11:30:14.179Z,67.15
2019-02-20T11:32:41.629Z,66.78
2019-02-20T11:35:09.080Z,67.27
2019-02-20T11:37:36.567Z,67.28
2019-02-20T11:40:04.026Z,66.99
2019-02-20T11:42:31.490Z,67.17
2019-02-20T11:44:58.950Z,66.30
2019-02-20T11:47:26.422Z,66.29
2019-02-20T11:49:53.889Z,66.06
2019-02-20T11:52:21.365Z,65.54
2019-02-20T11:54:48.824Z,65.53
2019-02-20T11:57:16.335Z,64.94
2019-02-20T11:59:43.828Z,64.69
2019-02-20T12:02:11.308Z,64.41
2019-02-20T12:04:38.762Z,63.78
2019-02-20T12:07:06.262Z,63.92
2019-02-20T12:09:33.756Z,64.56
2019-02-20T12:12:01.413Z,64.45
2019-02-20T12:14:28.900Z,63.76
2019-02-20T12:16:56.413Z,63.08
2019-02-20T12:19:23.955Z,63.71
2019-02-20T12:21:53.232Z,63.83
2019-02-20T12:24:20.765Z,63.87
2019-02-20T12:26:48.237Z,63.73
2019-02-20T12:29:15.734Z,63.71
2019-02-20T12:31:43.206Z,63.68
2019-02-20T12:34:10.706Z,63.29
2019-02-20T12:36:38.190Z,64.12
2019-02-20T12:39:05.688Z,63.52
2019-02-20T12:41:33.162Z,63.79
2019-02-20T12:44:00.616Z,63.72
2019-02-20T12:46:28.090Z,63.75
2019-02-20T12:48:55.626Z,63.67
2019-02-20T12:51:23.104Z,63.61
2019-02-20T12:53:50.647Z,63.89
2019-02-20T12:56:19.299Z,63.77
2019-02-20T12:58:46.740Z,63.30
2019-02-20T13:01:14.224Z,62.81
2019-02-20T13:03:41.713Z,62.36
2019-02-20T13:06:09.218Z,61.69
2019-02-20T13:08:36.693Z,60.67
2019-02-20T13:11:04.151Z,60.76
2019-02-20T13:13:32.255Z,61.25
2019-02-20T13:15:59.719Z,61.39
2019-02-20T13:18:29.006Z,59.96
2019-02-20T13:20:56.681Z,59.38
2019-02-20T13:23:24.226Z,59.23
2019-02-20T13:25:51.687Z,59.63
2019-02-20T13:28:19.119Z,59.02
2019-02-20T13:30:46.578Z,58.57
2019-02-20T13:33:14.370Z,59.15
2019-02-20T13:35:42.093Z,59.04
2019-02-20T13:38:09.770Z,58.29
2019-02-20T13:40:37.247Z,58.27
2019-02-20T13:43:04.697Z,58.59
2019-02-20T13:45:32.952Z,58.56
2019-02-20T13:48:00.432Z,56.99
2019-02-20T13:50:27.899Z,56.53
2019-02-20T13:52:55.441Z,56.76
2019-02-20T13:55:22.979Z,56.90
2019-02-20T13:57:50.465Z,56.34
2019-02-20T14:00:17.922Z,56.50
2019-02-20T14:02:45.407Z,56.75
2019-02-20T14:05:12.858Z,56.53
2019-02-20T14:07:40.355Z,56.43
2019-02-20T14:10:09.078Z,56.25
2019-02-20T14:12:37.258Z,55.63
2019-02-20T14:15:04.749Z,56.10
2019-02-20T14:17:32.274Z,55.96
2019-02-20T14:19:59.736Z,55.96
2019-02-20T14:22:27.253Z,56.00
2019-02-20T14:24:54.869Z,56.26
2019-02-20T14:27:22.304Z,56.49
2019-02-20T14:29:49.777Z,56.24
2019-02-20T14:32:17.240Z,56.74
2019-02-20T14:34:45.506Z,57.00
2019-02-20T14:37:12.184Z,57.35
2019-02-20T14:39:39.669Z,57.55
2019-02-20T14:42:07.180Z,56.74
2019-02-20T14:44:34.663Z,56.49
2019-02-20T14:47:04.017Z,56.37
2019-02-20T14:49:31.653Z,56.84
2019-02-20T14:51:59.101Z,56.65
2019-02-20T14:54:26.813Z,56.90
2019-02-20T14:56:54.268Z,56.81
2019-02-20T14:59:21.719Z,56.86
2019-02-20T15:01:49.193Z,57.50
2019-02-20T15:04:16.675Z,56.95
2019-02-20T15:06:44.151Z,56.48
2019-02-20T15:09:11.603Z,56.86
2019-02-20T15:11:39.058Z,56.98
2019-02-20T15:14:06.537Z,57.31
2019-02-20T15:16:34.660Z,57.46
2019-02-20T15:19:02.127Z,57.10
2019-02-20T15:21:29.621Z,56.89
2019-02-20T15:23:57.140Z,56.67
2019-02-20T15:26:24.630Z,56.80
2019-02-20T15:28:52.211Z,56.85
2019-02-20T15:31:21.368Z,57.05
2019-02-20T15:33:47.182Z,57.52
2019-02-20T15:36:14.663Z,58.07
2019-02-20T15:38:42.392Z,58.24
2019-02-20T15:41:09.881Z,58.55
2019-02-20T15:43:38.054Z,58.20
2019-02-20T15:46:05.876Z,58.36
2019-02-20T15:48:33.103Z,58.19
2019-02-20T15:51:00.633Z,58.40
2019-02-20T15:53:28.207Z,58.20
2019-02-20T15:55:58.687Z,58.87
2019-02-20T15:58:27.350Z,58.53
2019-02-20T16:00:54.560Z,58.43
2019-02-20T16:03:22.021Z,58.51
2019-02-20T16:05:49.481Z,58.40
2019-02-20T16:08:16.938Z,57.82
2019-02-20T16:10:44.438Z,58.10
2019-02-20T16:13:11.958Z,58.77
2019-02-20T16:15:39.513Z,58.95
2019-02-20T16:18:06.977Z,58.82
2019-02-20T16:20:34.439Z,59.04
2019-02-20T16:23:01.960Z,59.78
2019-02-20T16:25:29.472Z,59.33
2019-02-20T16:27:56.938Z,59.95
2019-02-20T16:30:24.439Z,59.70
2019-02-20T16:32:51.936Z,60.02
2019-02-20T16:35:19.417Z,60.23
2019-02-20T16:37:46.880Z,60.05
2019-02-20T16:40:14.340Z,60.39
2019-02-20T16:42:41.869Z,60.68
2019-02-20T16:45:24.201Z,61.25
2019-02-20T16:47:51.687Z,60.99
2019-02-20T16:50:19.140Z,61.22
2019-02-20T16:52:46.633Z,60.70
2019-02-20T16:55:19.319Z,60.67
2019-02-20T16:57:41.667Z,60.75
2019-02-20T17:00:09.116Z,61.01
2019-02-20T17:02:36.857Z,61.55
2019-02-20T17:05:04.283Z,61.12
2019-02-20T17:07:31.817Z,61.14
2019-02-20T17:09:59.287Z,60.89
2019-02-20T17:12:26.911Z,60.81
2019-02-20T17:14:54.419Z,60.53
2019-02-20T17:17:21.870Z,60.85
2019-02-20T17:19:49.307Z,60.79
2019-02-20T17:22:16.779Z,60.78
2019-02-20T17:24:44.252Z,60.53
2019-02-20T17:27:11.713Z,60.42
2019-02-20T17:29:39.175Z,60.77
2019-02-20T17:32:07.499Z,60.59
2019-02-20T17:34:34.935Z,60.96
2019-02-20T17:37:02.429Z,61.47
2019-02-20T17:39:29.920Z,61.85
2019-02-20T17:41:57.379Z,61.86
2019-02-20T17:44:24.831Z,62.24
2019-02-20T17:46:52.311Z,62.36
2019-02-20T17:49:19.807Z,62.25
2019-02-20T17:51:47.301Z,62.03
2019-02-20T17:54:14.804Z,61.71
2019-02-20T17:56:42.328Z,61.99
2019-02-20T17:59:09.848Z,62.54
2019-02-20T18:01:38.094Z,62.53
2019-02-20T18:04:05.667Z,63.42
2019-02-20T18:06:33.129Z,63.40
2019-02-20T18:09:05.556Z,63.24
2019-02-20T18:11:33.165Z,63.63
2019-02-20T18:14:00.632Z,63.14
2019-02-20T18:16:28.092Z,62.98
2019-02-20T18:18:55.809Z,63.06
2019-02-20T18:21:23.300Z,62.78
2019-02-20T18:23:52.007Z,62.75
2019-02-20T18:26:19.996Z,63.50
2019-02-20T18:28:47.613Z,63.13
2019-02-20T18:31:15.369Z,62.75
2019-02-20T18:33:43.077Z,63.17
2019-02-20T18:36:11.582Z,62.47
2019-02-20T18:38:38.759Z,62.77
2019-02-20T18:41:06.210Z,63.19
2019-02-20T18:43:33.647Z,62.84
2019-02-20T18:46:01.141Z,62.77
2019-02-20T18:48:29.309Z,62.70
2019-02-20T18:50:56.859Z,63.11
2019-02-20T18:53:24.311Z,63.88
2019-02-20T18:55:51.783Z,64.79
2019-02-20T18:58:19.270Z,63.80
2019-02-20T19:00:46.729Z,63.76
2019-02-20T19:03:14.252Z,64.40
2019-02-20T19:05:41.700Z,64.64
2019-02-20T19:08:21.235Z,65.11
2019-02-20T19:10:50.898Z,64.86
2019-02-20T19:13:38.659Z,64.30
2019-02-20T19:16:11.977Z,64.84
2019-02-20T19:18:46.111Z,64.91
2019-02-20T19:21:16.970Z,64.81
2019-02-20T19:24:03.106Z,64.85
2019-02-20T19:26:33.895Z,65.37
2019-02-20T19:29:23.096Z,65.10
2019-02-20T19:32:15.104Z,64.69
2019-02-20T19:35:02.279Z,64.46
2019-02-20T19:37:33.328Z,65.38
2019-02-20T19:40:14.369Z,64.99
2019-02-20T19:42:43.715Z,64.90
2019-02-20T19:45:25.856Z,64.52
2019-02-20T19:48:04.939Z,64.08
2019-02-20T19:50:48.999Z,64.43
2019-02-20T19:53:17.305Z,64.69
2019-02-20T19:56:04.232Z,64.95
2019-02-20T19:58:54.489Z,65.25
2019-02-20T20:01:36.305Z,65.05
2019-02-20T20:04:20.515Z,65.08
2019-02-20T20:06:51.579Z,65.09
2019-02-20T20:09:19.179Z,64.96
2019-02-20T20:12:04.488Z,65.06
2019-02-20T20:14:39.000Z,65.87
2019-02-20T20:17:28.935Z,65.86
2019-02-20T20:20:05.789Z,66.52
2019-02-20T20:22:41.112Z,66.25
2019-02-20T20:25:17.163Z,66.23
2019-02-20T20:27:52.050Z,66.70
2019-02-20T20:30:21.754Z,66.59
2019-02-20T20:33:22.149Z,66.19
2019-02-20T20:36:01.282Z,66.17
2019-02-20T20:38:43.662Z,66.36
2019-02-20T20:41:28.731Z,66.42
2019-02-20T20:44:28.047Z,66.72
2019-02-20T20:47:01.619Z,67.80
2019-02-20T20:49:49.326Z,67.02
2019-02-20T20:52:21.053Z,67.25
2019-02-20T20:54:56.446Z,67.09
2019-02-20T20:57:28.584Z,67.32
2019-02-20T21:00:17.772Z,68.74
2019-02-20T21:02:45.228Z,67.73
2019-02-20T21:05:14.486Z,67.11
2019-02-20T21:07:46.937Z,67.20
2019-02-20T21:10:29.325Z,67.31
2019-02-20T21:13:30.167Z,67.85
2019-02-20T21:16:21.534Z,67.17
2019-02-20T21:18:56.814Z,66.97
2019-02-20T21:21:25.139Z,67.79
2019-02-20T21:23:57.122Z,67.17
2019-02-20T21:26:44.927Z,68.33
2019-02-20T21:29:15.056Z,68.81
2019-02-20T21:31:48.315Z,68.52
2019-02-20T21:34:19.510Z,69.13
2019-02-20T21:37:07.587Z,69.80
2019-02-20T21:39:47.291Z,70.40
2019-02-20T21:42:19.009Z,70.50
2019-02-20T21:44:52.978Z,70.52
2019-02-20T21:47:38.092Z,70.44
2019-02-20T21:50:11.974Z,70.26
2019-02-20T21:52:49.228Z,70.66
2019-02-20T21:55:22.312Z,71.53
2019-02-20T21:58:03.898Z,70.39
2019-02-20T22:00:41.028Z,71.14
2019-02-20T22:03:20.872Z,71.37
2019-02-20T22:05:53.747Z,70.43
2019-02-20T22:08:49.629Z,70.55
2019-02-20T22:11:42.232Z,70.26
2019-02-20T22:14:19.899Z,70.74
2019-02-20T22:17:16.811Z,71.33
2019-02-20T22:20:12.943Z,71.23
2019-02-20T22:23:03.408Z,71.69
2019-02-20T22:25:41.763Z,71.36
2019-02-20T22:28:27.547Z,71.86
2019-02-20T22:30:55.993Z,71.40
2019-02-20T22:33:30.812Z,71.41
2019-02-20T22:36:31.131Z,72.29
2019-02-20T22:39:12.610Z,72.37
2019-02-20T22:41:49.503Z,71.99
2019-02-20T22:47:54.112Z,72.65
2019-02-20T22:53:48.003Z,71.49
2019-02-20T22:56:32.024Z,72.32
2019-02-20T22:59:25.181Z,72.29
2019-02-20T23:02:12.416Z,71.87
2019-02-20T23:04:41.146Z,72.81
2019-02-20T23:07:09.426Z,72.88
2019-02-20T23:09:41.780Z,72.49
2019-02-20T23:12:15.242Z,72.94
2019-02-20T23:14:53.697Z,73.86
2019-02-20T23:17:21.227Z,74.02
2019-02-20T23:19:48.706Z,73.23
2019-02-20T23:22:16.179Z,73.36
2019-02-20T23:24:43.633Z,73.72
2019-02-20T23:27:11.224Z,73.42
2019-02-20T23:29:38.703Z,73.86
2019-02-20T23:32:06.169Z,73.14
2019-02-20T23:34:33.645Z,72.69
2019-02-20T23:37:01.133Z,72.80
2019-02-20T23:39:28.583Z,73.53
2019-02-20T23:41:56.061Z,73.91
2019-02-20T23:44:23.670Z,73.37
2019-02-20T23:46:51.005Z,73.64
2019-02-20T23:49:18.467Z,73.53
2019-02-20T23:51:45.946Z,73.95
2019-02-20T23:54:13.504Z,73.93
2019-02-20T23:56:40.893Z,73.98
2019-02-20T23:59:08.368Z,73.62
